sensor_id;sensor_type;location;lat;lon;timestamp;temperature;humidity
40153;DHT22;26371;56.992;23.912;2023-07-31T00:02:21;14.50;99.90
40153;DHT22;26371;56.992;23.912;2023-07-31T00:04:50;14.60;99.90
40153;DHT22;26371;56.992;23.912;2023-07-31T00:07:18;14.60;99.90
40153;DHT22;26371;56.992;23.912;2023-07-31T00:09:47;14.60;99.90
40153;DHT22;26371;56.992;23.912;2023-07-31T00:12:15;14.60;99.90
40153;DHT22;26371;56.992;23.912;2023-07-31T00:14:43;14.60;99.90
40153;DHT22;26371;56.992;23.912;2023-07-31T00:17:14;14.60;99.90
40153;DHT22;26371;56.992;23.912;2023-07-31T00:19:42;14.60;99.90
40153;DHT22;26371;56.992;23.912;2023-07-31T00:22:13;14.90;99.90
40153;DHT22;26371;56.992;23.912;2023-07-31T00:24:41;14.70;99.90
40153;DHT22;26371;56.992;23.912;2023-07-31T00:27:09;14.70;99.90
40153;DHT22;26371;56.992;23.912;2023-07-31T00:29:37;14.70;99.90
40153;DHT22;26371;56.992;23.912;2023-07-31T00:32:06;14.70;99.90
40153;DHT22;26371;56.992;23.912;2023-07-31T00:34:38;14.70;99.90
40153;DHT22;26371;56.992;23.912;2023-07-31T00:37:06;14.70;99.90
40153;DHT22;26371;56.992;23.912;2023-07-31T00:39:35;15.00;99.90
40153;DHT22;26371;56.992;23.912;2023-07-31T00:42:05;14.60;99.90
40153;DHT22;26371;56.992;23.912;2023-07-31T00:44:34;14.60;99.90
40153;DHT22;26371;56.992;23.912;2023-07-31T00:47:02;14.60;99.90
40153;DHT22;26371;56.992;23.912;2023-07-31T00:49:31;14.60;99.90
40153;DHT22;26371;56.992;23.912;2023-07-31T00:52:01;14.60;99.90
40153;DHT22;26371;56.992;23.912;2023-07-31T00:54:29;14.60;99.90
40153;DHT22;26371;56.992;23.912;2023-07-31T00:56:57;14.50;99.90
40153;DHT22;26371;56.992;23.912;2023-07-31T00:59:27;14.50;99.90
40153;DHT22;26371;56.992;23.912;2023-07-31T01:01:56;14.50;99.90
40153;DHT22;26371;56.992;23.912;2023-07-31T01:04:24;14.50;99.90
40153;DHT22;26371;56.992;23.912;2023-07-31T01:06:55;14.50;99.90
40153;DHT22;26371;56.992;23.912;2023-07-31T01:09:29;14.50;99.90
40153;DHT22;26371;56.992;23.912;2023-07-31T01:12:00;14.40;99.90
40153;DHT22;26371;56.992;23.912;2023-07-31T01:14:29;14.40;99.90
40153;DHT22;26371;56.992;23.912;2023-07-31T01:16:59;14.40;99.90
40153;DHT22;26371;56.992;23.912;2023-07-31T01:19:27;14.40;99.90
40153;DHT22;26371;56.992;23.912;2023-07-31T01:22:01;14.30;99.90
40153;DHT22;26371;56.992;23.912;2023-07-31T01:24:38;14.30;99.90
40153;DHT22;26371;56.992;23.912;2023-07-31T01:27:12;14.30;99.90
40153;DHT22;26371;56.992;23.912;2023-07-31T01:29:42;14.30;99.90
40153;DHT22;26371;56.992;23.912;2023-07-31T01:32:12;14.30;99.90
40153;DHT22;26371;56.992;23.912;2023-07-31T01:34:41;14.30;99.90
40153;DHT22;26371;56.992;23.912;2023-07-31T01:37:10;14.20;99.90
40153;DHT22;26371;56.992;23.912;2023-07-31T01:39:38;14.30;99.90
40153;DHT22;26371;56.992;23.912;2023-07-31T01:42:06;14.20;99.90
40153;DHT22;26371;56.992;23.912;2023-07-31T01:44:36;14.20;99.90
40153;DHT22;26371;56.992;23.912;2023-07-31T01:47:05;14.20;99.90
40153;DHT22;26371;56.992;23.912;2023-07-31T01:49:33;14.20;99.90
40153;DHT22;26371;56.992;23.912;2023-07-31T01:52:02;14.20;99.90
40153;DHT22;26371;56.992;23.912;2023-07-31T01:54:30;14.20;99.90
40153;DHT22;26371;56.992;23.912;2023-07-31T01:56:59;14.10;99.90
40153;DHT22;26371;56.992;23.912;2023-07-31T01:59:28;14.10;99.90
40153;DHT22;26371;56.992;23.912;2023-07-31T02:01:58;14.10;99.90
40153;DHT22;26371;56.992;23.912;2023-07-31T02:04:26;14.00;99.90
40153;DHT22;26371;56.992;23.912;2023-07-31T02:06:54;14.10;99.90
40153;DHT22;26371;56.992;23.912;2023-07-31T02:09:23;14.10;99.90
40153;DHT22;26371;56.992;23.912;2023-07-31T02:11:51;14.00;99.90
40153;DHT22;26371;56.992;23.912;2023-07-31T02:14:20;14.10;99.90
40153;DHT22;26371;56.992;23.912;2023-07-31T02:16:48;14.10;99.90
40153;DHT22;26371;56.992;23.912;2023-07-31T02:19:18;14.10;99.90
40153;DHT22;26371;56.992;23.912;2023-07-31T02:21:46;14.10;99.90
40153;DHT22;26371;56.992;23.912;2023-07-31T02:24:15;14.10;99.90
40153;DHT22;26371;56.992;23.912;2023-07-31T02:26:43;14.20;99.90
40153;DHT22;26371;56.992;23.912;2023-07-31T02:29:12;14.20;99.90
40153;DHT22;26371;56.992;23.912;2023-07-31T02:31:40;14.20;99.90
40153;DHT22;26371;56.992;23.912;2023-07-31T02:34:09;14.20;99.90
40153;DHT22;26371;56.992;23.912;2023-07-31T02:36:39;14.20;99.90
40153;DHT22;26371;56.992;23.912;2023-07-31T02:39:08;14.20;99.90
40153;DHT22;26371;56.992;23.912;2023-07-31T02:41:36;14.20;99.90
40153;DHT22;26371;56.992;23.912;2023-07-31T02:44:04;14.20;99.90
40153;DHT22;26371;56.992;23.912;2023-07-31T02:46:33;14.20;99.90
40153;DHT22;26371;56.992;23.912;2023-07-31T02:49:01;14.20;99.90
40153;DHT22;26371;56.992;23.912;2023-07-31T02:51:29;14.20;99.90
40153;DHT22;26371;56.992;23.912;2023-07-31T02:53:59;14.20;99.90
40153;DHT22;26371;56.992;23.912;2023-07-31T02:56:27;14.20;99.90
40153;DHT22;26371;56.992;23.912;2023-07-31T02:58:56;14.20;99.90
40153;DHT22;26371;56.992;23.912;2023-07-31T03:01:24;14.20;99.90
40153;DHT22;26371;56.992;23.912;2023-07-31T03:03:53;14.20;99.90
40153;DHT22;26371;56.992;23.912;2023-07-31T03:06:22;14.20;99.90
40153;DHT22;26371;56.992;23.912;2023-07-31T03:08:50;14.20;99.90
40153;DHT22;26371;56.992;23.912;2023-07-31T03:11:21;14.20;99.90
40153;DHT22;26371;56.992;23.912;2023-07-31T03:13:49;14.20;99.90
40153;DHT22;26371;56.992;23.912;2023-07-31T03:16:18;14.20;99.90
40153;DHT22;26371;56.992;23.912;2023-07-31T03:18:46;14.20;99.90
40153;DHT22;26371;56.992;23.912;2023-07-31T03:21:14;14.30;99.90
40153;DHT22;26371;56.992;23.912;2023-07-31T03:23:43;14.30;99.90
40153;DHT22;26371;56.992;23.912;2023-07-31T03:26:11;14.30;99.90
40153;DHT22;26371;56.992;23.912;2023-07-31T03:28:41;14.30;99.90
40153;DHT22;26371;56.992;23.912;2023-07-31T03:31:09;14.30;99.90
40153;DHT22;26371;56.992;23.912;2023-07-31T03:33:38;14.30;99.90
40153;DHT22;26371;56.992;23.912;2023-07-31T03:36:06;14.30;99.90
40153;DHT22;26371;56.992;23.912;2023-07-31T03:38:35;14.40;99.90
40153;DHT22;26371;56.992;23.912;2023-07-31T03:41:04;14.40;99.90
40153;DHT22;26371;56.992;23.912;2023-07-31T03:43:33;14.40;99.90
40153;DHT22;26371;56.992;23.912;2023-07-31T03:46:03;14.40;99.90
40153;DHT22;26371;56.992;23.912;2023-07-31T03:48:31;14.50;99.90
40153;DHT22;26371;56.992;23.912;2023-07-31T03:50:59;14.50;99.90
40153;DHT22;26371;56.992;23.912;2023-07-31T03:53:28;14.50;99.90
40153;DHT22;26371;56.992;23.912;2023-07-31T03:55:56;14.50;99.90
40153;DHT22;26371;56.992;23.912;2023-07-31T03:58:24;14.60;99.90
40153;DHT22;26371;56.992;23.912;2023-07-31T04:00:53;14.60;99.90
40153;DHT22;26371;56.992;23.912;2023-07-31T04:03:22;14.70;99.90
40153;DHT22;26371;56.992;23.912;2023-07-31T04:05:51;14.70;99.90
40153;DHT22;26371;56.992;23.912;2023-07-31T04:08:19;14.80;99.90
40153;DHT22;26371;56.992;23.912;2023-07-31T04:10:47;14.70;99.90
40153;DHT22;26371;56.992;23.912;2023-07-31T04:13:16;14.80;99.90
40153;DHT22;26371;56.992;23.912;2023-07-31T04:15:47;14.80;99.90
40153;DHT22;26371;56.992;23.912;2023-07-31T04:18:16;14.90;99.90
40153;DHT22;26371;56.992;23.912;2023-07-31T04:20:45;14.90;99.90
40153;DHT22;26371;56.992;23.912;2023-07-31T04:23:14;15.00;99.90
40153;DHT22;26371;56.992;23.912;2023-07-31T04:25:42;15.00;99.90
40153;DHT22;26371;56.992;23.912;2023-07-31T04:28:10;15.00;99.90
40153;DHT22;26371;56.992;23.912;2023-07-31T04:30:39;15.00;99.90
40153;DHT22;26371;56.992;23.912;2023-07-31T04:33:07;15.00;99.90
40153;DHT22;26371;56.992;23.912;2023-07-31T04:35:36;15.10;99.90
40153;DHT22;26371;56.992;23.912;2023-07-31T04:38:06;15.10;99.90
40153;DHT22;26371;56.992;23.912;2023-07-31T04:40:34;15.10;99.90
40153;DHT22;26371;56.992;23.912;2023-07-31T04:43:02;15.10;99.90
40153;DHT22;26371;56.992;23.912;2023-07-31T04:45:30;15.20;99.90
40153;DHT22;26371;56.992;23.912;2023-07-31T04:47:59;15.20;99.90
40153;DHT22;26371;56.992;23.912;2023-07-31T04:50:27;15.20;99.90
40153;DHT22;26371;56.992;23.912;2023-07-31T04:52:57;15.10;99.90
40153;DHT22;26371;56.992;23.912;2023-07-31T04:55:26;15.20;99.90
40153;DHT22;26371;56.992;23.912;2023-07-31T04:57:55;15.20;99.90
40153;DHT22;26371;56.992;23.912;2023-07-31T05:00:23;15.20;99.90
40153;DHT22;26371;56.992;23.912;2023-07-31T05:02:51;15.20;99.90
40153;DHT22;26371;56.992;23.912;2023-07-31T05:05:20;15.30;99.90
40153;DHT22;26371;56.992;23.912;2023-07-31T05:07:48;15.30;99.90
40153;DHT22;26371;56.992;23.912;2023-07-31T05:10:16;15.40;99.90
40153;DHT22;26371;56.992;23.912;2023-07-31T05:12:46;15.40;99.90
40153;DHT22;26371;56.992;23.912;2023-07-31T05:15:14;15.40;99.90
40153;DHT22;26371;56.992;23.912;2023-07-31T05:17:43;15.50;99.90
40153;DHT22;26371;56.992;23.912;2023-07-31T05:20:11;15.50;99.90
40153;DHT22;26371;56.992;23.912;2023-07-31T05:22:40;15.50;99.90
40153;DHT22;26371;56.992;23.912;2023-07-31T05:25:08;15.60;99.90
40153;DHT22;26371;56.992;23.912;2023-07-31T05:27:37;15.70;99.90
40153;DHT22;26371;56.992;23.912;2023-07-31T05:30:07;15.70;99.90
40153;DHT22;26371;56.992;23.912;2023-07-31T05:32:35;15.80;99.90
40153;DHT22;26371;56.992;23.912;2023-07-31T05:35:05;15.90;99.90
40153;DHT22;26371;56.992;23.912;2023-07-31T05:37:33;15.90;99.90
40153;DHT22;26371;56.992;23.912;2023-07-31T05:40:01;15.90;99.90
40153;DHT22;26371;56.992;23.912;2023-07-31T05:42:30;15.90;99.90
40153;DHT22;26371;56.992;23.912;2023-07-31T05:44:58;15.90;99.90
40153;DHT22;26371;56.992;23.912;2023-07-31T05:47:28;16.00;99.90
40153;DHT22;26371;56.992;23.912;2023-07-31T05:49:57;16.00;99.90
40153;DHT22;26371;56.992;23.912;2023-07-31T05:52:25;16.00;99.90
40153;DHT22;26371;56.992;23.912;2023-07-31T05:54:53;16.00;99.90
40153;DHT22;26371;56.992;23.912;2023-07-31T05:57:22;16.00;99.90
40153;DHT22;26371;56.992;23.912;2023-07-31T05:59:50;16.00;99.90
40153;DHT22;26371;56.992;23.912;2023-07-31T06:02:20;16.10;99.90
40153;DHT22;26371;56.992;23.912;2023-07-31T06:04:49;16.10;99.90
40153;DHT22;26371;56.992;23.912;2023-07-31T06:07:18;16.10;99.90
40153;DHT22;26371;56.992;23.912;2023-07-31T06:09:46;16.20;99.90
40153;DHT22;26371;56.992;23.912;2023-07-31T06:12:16;16.30;99.90
40153;DHT22;26371;56.992;23.912;2023-07-31T06:14:45;16.30;99.90
40153;DHT22;26371;56.992;23.912;2023-07-31T06:17:14;16.40;99.90
40153;DHT22;26371;56.992;23.912;2023-07-31T06:19:42;16.50;99.90
40153;DHT22;26371;56.992;23.912;2023-07-31T06:22:12;16.60;99.90
40153;DHT22;26371;56.992;23.912;2023-07-31T06:24:40;16.70;99.90
40153;DHT22;26371;56.992;23.912;2023-07-31T06:27:09;16.80;99.90
40153;DHT22;26371;56.992;23.912;2023-07-31T06:29:37;16.90;99.90
40153;DHT22;26371;56.992;23.912;2023-07-31T06:32:06;16.90;99.90
40153;DHT22;26371;56.992;23.912;2023-07-31T06:34:34;16.90;99.90
40153;DHT22;26371;56.992;23.912;2023-07-31T06:37:03;17.00;99.90
40153;DHT22;26371;56.992;23.912;2023-07-31T06:39:33;17.00;99.90
40153;DHT22;26371;56.992;23.912;2023-07-31T06:42:01;16.90;99.90
40153;DHT22;26371;56.992;23.912;2023-07-31T06:44:29;17.00;99.90
40153;DHT22;26371;56.992;23.912;2023-07-31T06:46:58;17.10;99.90
40153;DHT22;26371;56.992;23.912;2023-07-31T06:49:26;17.20;99.90
40153;DHT22;26371;56.992;23.912;2023-07-31T06:51:54;17.30;99.90
40153;DHT22;26371;56.992;23.912;2023-07-31T06:54:23;17.30;99.90
40153;DHT22;26371;56.992;23.912;2023-07-31T06:56:53;17.20;99.90
40153;DHT22;26371;56.992;23.912;2023-07-31T06:59:21;17.20;99.90
40153;DHT22;26371;56.992;23.912;2023-07-31T07:01:49;17.20;99.90
40153;DHT22;26371;56.992;23.912;2023-07-31T07:04:18;17.20;99.90
40153;DHT22;26371;56.992;23.912;2023-07-31T07:06:46;17.30;99.90
40153;DHT22;26371;56.992;23.912;2023-07-31T07:09:14;17.30;99.90
40153;DHT22;26371;56.992;23.912;2023-07-31T07:11:43;17.40;99.90
40153;DHT22;26371;56.992;23.912;2023-07-31T07:14:12;17.50;99.90
40153;DHT22;26371;56.992;23.912;2023-07-31T07:16:41;17.70;99.90
40153;DHT22;26371;56.992;23.912;2023-07-31T07:19:09;17.80;99.90
40153;DHT22;26371;56.992;23.912;2023-07-31T07:21:38;17.70;99.90
40153;DHT22;26371;56.992;23.912;2023-07-31T07:24:06;17.60;99.90
40153;DHT22;26371;56.992;23.912;2023-07-31T07:26:34;17.70;99.90
40153;DHT22;26371;56.992;23.912;2023-07-31T07:29:03;17.70;99.90
40153;DHT22;26371;56.992;23.912;2023-07-31T07:31:35;17.60;99.90
40153;DHT22;26371;56.992;23.912;2023-07-31T07:34:04;17.60;99.90
40153;DHT22;26371;56.992;23.912;2023-07-31T07:36:32;17.50;99.90
40153;DHT22;26371;56.992;23.912;2023-07-31T07:39:01;17.50;99.90
40153;DHT22;26371;56.992;23.912;2023-07-31T07:41:29;17.70;99.90
40153;DHT22;26371;56.992;23.912;2023-07-31T07:43:57;17.90;99.90
40153;DHT22;26371;56.992;23.912;2023-07-31T07:46:26;18.00;99.90
40153;DHT22;26371;56.992;23.912;2023-07-31T07:48:56;18.00;99.90
40153;DHT22;26371;56.992;23.912;2023-07-31T07:51:24;18.00;99.90
40153;DHT22;26371;56.992;23.912;2023-07-31T07:53:52;18.10;99.90
40153;DHT22;26371;56.992;23.912;2023-07-31T07:56:21;18.10;99.90
40153;DHT22;26371;56.992;23.912;2023-07-31T07:58:53;18.00;99.90
40153;DHT22;26371;56.992;23.912;2023-07-31T08:01:21;18.00;99.90
40153;DHT22;26371;56.992;23.912;2023-07-31T08:03:49;18.00;99.90
40153;DHT22;26371;56.992;23.912;2023-07-31T08:06:19;18.00;99.90
40153;DHT22;26371;56.992;23.912;2023-07-31T08:08:49;18.00;99.90
40153;DHT22;26371;56.992;23.912;2023-07-31T08:11:17;18.10;99.90
40153;DHT22;26371;56.992;23.912;2023-07-31T08:13:46;18.30;99.90
40153;DHT22;26371;56.992;23.912;2023-07-31T08:16:14;18.50;99.90
40153;DHT22;26371;56.992;23.912;2023-07-31T08:18:42;18.60;99.90
40153;DHT22;26371;56.992;23.912;2023-07-31T08:21:11;18.70;99.90
40153;DHT22;26371;56.992;23.912;2023-07-31T08:23:41;18.80;99.90
40153;DHT22;26371;56.992;23.912;2023-07-31T08:26:14;18.90;99.90
40153;DHT22;26371;56.992;23.912;2023-07-31T08:28:42;19.00;99.90
40153;DHT22;26371;56.992;23.912;2023-07-31T08:31:10;19.10;99.90
40153;DHT22;26371;56.992;23.912;2023-07-31T08:33:39;19.20;99.90
40153;DHT22;26371;56.992;23.912;2023-07-31T08:36:08;19.20;99.90
40153;DHT22;26371;56.992;23.912;2023-07-31T08:38:36;19.20;99.90
40153;DHT22;26371;56.992;23.912;2023-07-31T08:41:06;19.20;99.90
40153;DHT22;26371;56.992;23.912;2023-07-31T08:43:35;19.30;99.90
40153;DHT22;26371;56.992;23.912;2023-07-31T08:46:03;19.40;99.90
40153;DHT22;26371;56.992;23.912;2023-07-31T08:48:32;19.60;99.90
40153;DHT22;26371;56.992;23.912;2023-07-31T08:51:02;19.60;99.90
40153;DHT22;26371;56.992;23.912;2023-07-31T08:53:30;19.60;99.90
40153;DHT22;26371;56.992;23.912;2023-07-31T08:55:58;19.70;99.90
40153;DHT22;26371;56.992;23.912;2023-07-31T08:58:29;19.80;99.90
40153;DHT22;26371;56.992;23.912;2023-07-31T09:00:59;19.90;99.90
40153;DHT22;26371;56.992;23.912;2023-07-31T09:03:29;20.10;99.90
40153;DHT22;26371;56.992;23.912;2023-07-31T09:05:59;20.10;99.90
40153;DHT22;26371;56.992;23.912;2023-07-31T09:08:28;20.00;99.90
40153;DHT22;26371;56.992;23.912;2023-07-31T09:10:59;19.90;99.90
40153;DHT22;26371;56.992;23.912;2023-07-31T09:13:29;19.80;99.90
40153;DHT22;26371;56.992;23.912;2023-07-31T09:15:58;19.70;99.90
40153;DHT22;26371;56.992;23.912;2023-07-31T09:18:26;19.60;99.90
40153;DHT22;26371;56.992;23.912;2023-07-31T09:21:01;19.60;99.90
40153;DHT22;26371;56.992;23.912;2023-07-31T09:23:40;19.50;99.90
40153;DHT22;26371;56.992;23.912;2023-07-31T09:26:09;19.40;99.90
40153;DHT22;26371;56.992;23.912;2023-07-31T09:28:39;19.30;99.90
40153;DHT22;26371;56.992;23.912;2023-07-31T09:31:07;19.10;99.90
40153;DHT22;26371;56.992;23.912;2023-07-31T09:33:36;19.10;99.90
40153;DHT22;26371;56.992;23.912;2023-07-31T09:36:22;19.00;99.90
40153;DHT22;26371;56.992;23.912;2023-07-31T09:38:50;18.90;99.90
40153;DHT22;26371;56.992;23.912;2023-07-31T09:41:19;18.90;99.90
40153;DHT22;26371;56.992;23.912;2023-07-31T09:43:54;18.80;99.90
40153;DHT22;26371;56.992;23.912;2023-07-31T09:46:22;18.70;99.90
40153;DHT22;26371;56.992;23.912;2023-07-31T09:49:03;18.70;99.90
40153;DHT22;26371;56.992;23.912;2023-07-31T09:51:32;18.60;99.90
40153;DHT22;26371;56.992;23.912;2023-07-31T09:54:11;18.50;99.90
40153;DHT22;26371;56.992;23.912;2023-07-31T09:56:41;18.50;99.90
40153;DHT22;26371;56.992;23.912;2023-07-31T10:01:41;18.30;99.90
40153;DHT22;26371;56.992;23.912;2023-07-31T10:04:10;18.20;99.90
40153;DHT22;26371;56.992;23.912;2023-07-31T10:06:39;18.20;99.90
40153;DHT22;26371;56.992;23.912;2023-07-31T10:09:09;18.20;99.90
40153;DHT22;26371;56.992;23.912;2023-07-31T10:11:38;18.10;99.90
40153;DHT22;26371;56.992;23.912;2023-07-31T10:14:11;18.00;99.90
40153;DHT22;26371;56.992;23.912;2023-07-31T10:16:41;18.00;99.90
40153;DHT22;26371;56.992;23.912;2023-07-31T10:19:10;17.90;99.90
40153;DHT22;26371;56.992;23.912;2023-07-31T10:21:39;17.80;99.90
40153;DHT22;26371;56.992;23.912;2023-07-31T10:24:08;17.70;99.90
40153;DHT22;26371;56.992;23.912;2023-07-31T10:26:37;17.60;99.90
40153;DHT22;26371;56.992;23.912;2023-07-31T10:29:06;17.50;99.90
40153;DHT22;26371;56.992;23.912;2023-07-31T10:31:35;17.40;99.90
40153;DHT22;26371;56.992;23.912;2023-07-31T10:34:05;17.40;99.90
40153;DHT22;26371;56.992;23.912;2023-07-31T10:36:34;17.50;99.90
40153;DHT22;26371;56.992;23.912;2023-07-31T10:39:03;17.40;99.90
40153;DHT22;26371;56.992;23.912;2023-07-31T10:41:32;17.30;99.90
40153;DHT22;26371;56.992;23.912;2023-07-31T10:48:58;16.80;99.90
40153;DHT22;26371;56.992;23.912;2023-07-31T10:51:34;17.60;99.90
40153;DHT22;26371;56.992;23.912;2023-07-31T10:54:12;16.90;99.90
40153;DHT22;26371;56.992;23.912;2023-07-31T10:56:44;17.60;99.90
40153;DHT22;26371;56.992;23.912;2023-07-31T10:59:13;17.60;99.90
40153;DHT22;26371;56.992;23.912;2023-07-31T11:01:49;17.90;99.90
40153;DHT22;26371;56.992;23.912;2023-07-31T11:04:21;17.90;99.90
40153;DHT22;26371;56.992;23.912;2023-07-31T11:07:01;18.00;99.90
40153;DHT22;26371;56.992;23.912;2023-07-31T11:09:30;18.30;99.90
40153;DHT22;26371;56.992;23.912;2023-07-31T11:11:59;18.70;99.90
40153;DHT22;26371;56.992;23.912;2023-07-31T11:14:27;18.90;99.90
40153;DHT22;26371;56.992;23.912;2023-07-31T11:16:56;19.10;99.90
40153;DHT22;26371;56.992;23.912;2023-07-31T11:19:25;19.30;99.90
40153;DHT22;26371;56.992;23.912;2023-07-31T11:21:53;19.50;99.90
40153;DHT22;26371;56.992;23.912;2023-07-31T11:24:23;19.60;99.90
40153;DHT22;26371;56.992;23.912;2023-07-31T11:26:52;19.70;99.90
40153;DHT22;26371;56.992;23.912;2023-07-31T11:29:20;19.90;99.90
40153;DHT22;26371;56.992;23.912;2023-07-31T11:31:48;19.90;99.90
40153;DHT22;26371;56.992;23.912;2023-07-31T11:34:17;20.00;99.90
40153;DHT22;26371;56.992;23.912;2023-07-31T11:36:53;20.00;99.90
40153;DHT22;26371;56.992;23.912;2023-07-31T11:39:24;20.10;99.90
40153;DHT22;26371;56.992;23.912;2023-07-31T11:41:52;20.20;99.90
40153;DHT22;26371;56.992;23.912;2023-07-31T11:44:26;20.30;99.90
40153;DHT22;26371;56.992;23.912;2023-07-31T11:47:05;20.50;99.90
40153;DHT22;26371;56.992;23.912;2023-07-31T11:49:33;20.60;99.90
40153;DHT22;26371;56.992;23.912;2023-07-31T11:52:04;20.80;99.90
40153;DHT22;26371;56.992;23.912;2023-07-31T13:23:57;20.00;99.90
40153;DHT22;26371;56.992;23.912;2023-07-31T13:26:27;20.00;99.90
40153;DHT22;26371;56.992;23.912;2023-07-31T13:33:54;19.20;99.90
40153;DHT22;26371;56.992;23.912;2023-07-31T14:23:39;20.80;99.90
40153;DHT22;26371;56.992;23.912;2023-07-31T14:26:08;21.10;99.90
40153;DHT22;26371;56.992;23.912;2023-07-31T14:28:37;21.00;99.90
40153;DHT22;26371;56.992;23.912;2023-07-31T14:31:05;21.10;99.90
40153;DHT22;26371;56.992;23.912;2023-07-31T14:33:34;21.30;99.90
40153;DHT22;26371;56.992;23.912;2023-07-31T14:36:02;21.30;99.90
40153;DHT22;26371;56.992;23.912;2023-07-31T14:38:30;21.30;99.90
40153;DHT22;26371;56.992;23.912;2023-07-31T14:41:00;21.50;99.90
40153;DHT22;26371;56.992;23.912;2023-07-31T14:43:29;21.60;99.90
40153;DHT22;26371;56.992;23.912;2023-07-31T14:45:57;21.50;99.90
40153;DHT22;26371;56.992;23.912;2023-07-31T14:48:26;21.50;99.90
40153;DHT22;26371;56.992;23.912;2023-07-31T14:50:56;21.70;99.90
40153;DHT22;26371;56.992;23.912;2023-07-31T14:53:24;21.80;99.90
40153;DHT22;26371;56.992;23.912;2023-07-31T14:55:52;22.00;99.90
40153;DHT22;26371;56.992;23.912;2023-07-31T14:58:23;22.20;99.90
40153;DHT22;26371;56.992;23.912;2023-07-31T15:00:51;22.40;99.90
40153;DHT22;26371;56.992;23.912;2023-07-31T15:03:20;22.50;99.90
40153;DHT22;26371;56.992;23.912;2023-07-31T15:05:48;22.70;99.90
40153;DHT22;26371;56.992;23.912;2023-07-31T15:08:16;22.80;99.90
40153;DHT22;26371;56.992;23.912;2023-07-31T15:10:46;22.80;99.90
40153;DHT22;26371;56.992;23.912;2023-07-31T15:13:15;22.90;99.90
40153;DHT22;26371;56.992;23.912;2023-07-31T15:15:45;22.90;99.90
40153;DHT22;26371;56.992;23.912;2023-07-31T15:18:13;22.80;99.90
40153;DHT22;26371;56.992;23.912;2023-07-31T15:20:41;22.80;99.90
40153;DHT22;26371;56.992;23.912;2023-07-31T15:23:09;22.70;99.90
40153;DHT22;26371;56.992;23.912;2023-07-31T15:25:38;22.70;99.90
40153;DHT22;26371;56.992;23.912;2023-07-31T15:28:06;22.70;99.90
40153;DHT22;26371;56.992;23.912;2023-07-31T15:30:36;22.70;99.90
40153;DHT22;26371;56.992;23.912;2023-07-31T15:33:06;22.50;99.90
40153;DHT22;26371;56.992;23.912;2023-07-31T15:35:34;22.50;99.90
40153;DHT22;26371;56.992;23.912;2023-07-31T15:38:02;22.40;99.90
40153;DHT22;26371;56.992;23.912;2023-07-31T15:40:31;22.30;99.90
40153;DHT22;26371;56.992;23.912;2023-07-31T15:42:59;22.30;99.90
40153;DHT22;26371;56.992;23.912;2023-07-31T15:45:29;22.20;99.90
40153;DHT22;26371;56.992;23.912;2023-07-31T15:47:58;22.10;99.90
40153;DHT22;26371;56.992;23.912;2023-07-31T15:50:28;22.10;99.90
40153;DHT22;26371;56.992;23.912;2023-07-31T15:52:56;22.20;99.90
40153;DHT22;26371;56.992;23.912;2023-07-31T15:55:24;22.30;99.90
40153;DHT22;26371;56.992;23.912;2023-07-31T15:57:53;22.30;99.90
40153;DHT22;26371;56.992;23.912;2023-07-31T16:00:21;22.30;99.90
40153;DHT22;26371;56.992;23.912;2023-07-31T16:02:49;22.30;99.90
40153;DHT22;26371;56.992;23.912;2023-07-31T16:05:18;22.20;99.90
40153;DHT22;26371;56.992;23.912;2023-07-31T16:07:47;22.10;99.90
40153;DHT22;26371;56.992;23.912;2023-07-31T16:10:16;22.00;99.90
40153;DHT22;26371;56.992;23.912;2023-07-31T16:12:44;21.80;99.90
40153;DHT22;26371;56.992;23.912;2023-07-31T16:15:13;21.60;99.90
40153;DHT22;26371;56.992;23.912;2023-07-31T16:17:41;21.40;99.90
40153;DHT22;26371;56.992;23.912;2023-07-31T16:20:09;21.20;99.90
40153;DHT22;26371;56.992;23.912;2023-07-31T16:22:38;21.00;99.90
40153;DHT22;26371;56.992;23.912;2023-07-31T16:25:09;20.80;99.90
40153;DHT22;26371;56.992;23.912;2023-07-31T16:27:37;20.70;99.90
40153;DHT22;26371;56.992;23.912;2023-07-31T16:30:06;20.50;99.90
40153;DHT22;26371;56.992;23.912;2023-07-31T16:32:35;20.40;99.90
40153;DHT22;26371;56.992;23.912;2023-07-31T16:35:03;20.30;99.90
40153;DHT22;26371;56.992;23.912;2023-07-31T16:37:32;20.30;99.90
40153;DHT22;26371;56.992;23.912;2023-07-31T16:40:04;20.20;99.90
40153;DHT22;26371;56.992;23.912;2023-07-31T16:42:34;20.10;99.90
40153;DHT22;26371;56.992;23.912;2023-07-31T16:45:03;20.00;99.90
40153;DHT22;26371;56.992;23.912;2023-07-31T16:47:32;19.90;99.90
40153;DHT22;26371;56.992;23.912;2023-07-31T16:50:00;19.80;99.90
40153;DHT22;26371;56.992;23.912;2023-07-31T16:52:29;19.70;99.90
40153;DHT22;26371;56.992;23.912;2023-07-31T16:54:57;19.70;99.90
40153;DHT22;26371;56.992;23.912;2023-07-31T16:57:25;19.60;99.90
40153;DHT22;26371;56.992;23.912;2023-07-31T16:59:55;19.50;99.90
40153;DHT22;26371;56.992;23.912;2023-07-31T17:02:23;19.30;99.90
40153;DHT22;26371;56.992;23.912;2023-07-31T17:04:52;19.20;99.90
40153;DHT22;26371;56.992;23.912;2023-07-31T17:07:20;19.10;99.90
40153;DHT22;26371;56.992;23.912;2023-07-31T17:09:49;19.10;99.90
40153;DHT22;26371;56.992;23.912;2023-07-31T17:12:17;19.10;99.90
40153;DHT22;26371;56.992;23.912;2023-07-31T17:14:47;19.20;99.90
40153;DHT22;26371;56.992;23.912;2023-07-31T17:17:18;19.20;99.90
40153;DHT22;26371;56.992;23.912;2023-07-31T17:19:50;19.20;99.90
40153;DHT22;26371;56.992;23.912;2023-07-31T17:22:18;19.10;99.90
40153;DHT22;26371;56.992;23.912;2023-07-31T17:25:00;19.10;99.90
40153;DHT22;26371;56.992;23.912;2023-07-31T17:27:29;19.00;99.90
40153;DHT22;26371;56.992;23.912;2023-07-31T17:29:57;18.90;99.90
40153;DHT22;26371;56.992;23.912;2023-07-31T17:32:27;18.80;99.90
40153;DHT22;26371;56.992;23.912;2023-07-31T17:34:55;18.80;99.90
40153;DHT22;26371;56.992;23.912;2023-07-31T17:37:24;18.80;99.90
40153;DHT22;26371;56.992;23.912;2023-07-31T17:39:53;18.60;99.90
40153;DHT22;26371;56.992;23.912;2023-07-31T17:42:21;18.70;99.90
40153;DHT22;26371;56.992;23.912;2023-07-31T17:44:50;18.60;99.90
40153;DHT22;26371;56.992;23.912;2023-07-31T17:47:18;18.60;99.90
40153;DHT22;26371;56.992;23.912;2023-07-31T17:49:48;18.60;99.90
40153;DHT22;26371;56.992;23.912;2023-07-31T17:52:19;18.50;99.90
40153;DHT22;26371;56.992;23.912;2023-07-31T17:54:48;18.40;99.90
40153;DHT22;26371;56.992;23.912;2023-07-31T17:57:20;18.20;99.90